Orbital elements of SL-16 DEB
| Launched | 24 December 1992 |
| Flight ended | – |
| Launch site | Tyuratam Missile and Space Center, Kazakhstan (Also known as Baikonur Cosmodrome) |
| Owner | Commonwealth of Independent States (former USSR) |
| NORAD ID | 22354 |
| Date fetched |
Epoch osculation |
Inc. [°] |
Ecc. | RA asc node [hr] |
Arg Peri. [°] |
Mean anom [°] |
Mean motion [rev/day] |
Abs. mag |
| Date fetched |
Epoch osculation |
Inc. [°] |
Ecc. | RA asc node [hr] |
Arg Peri. [°] |
Mean anom [°] |
Mean motion [rev/day] |
Abs. mag |
| 2026 May 07 17:58 | 2026 May 05 10:04:40 | 71.1452 | 0.01446 | 18.3608 | 259.1413 | 130.6768 | 13.92998 | 8.243 |
| 2026 May 06 17:57 | 2026 May 05 10:04:40 | 71.1452 | 0.01446 | 18.3608 | 259.1413 | 130.6768 | 13.92998 | 8.243 |
| 2026 May 05 17:57 | 2026 May 05 10:04:40 | 71.1452 | 0.01446 | 18.3608 | 259.1413 | 130.6768 | 13.92998 | 8.243 |
| 2026 May 04 17:57 | 2026 Apr 30 14:48:29 | 71.1448 | 0.01446 | 19.0046 | 266.2004 | 130.6768 | 13.92998 | 8.243 |
| 2026 May 03 17:57 | 2026 Apr 30 14:48:29 | 71.1448 | 0.01446 | 19.0046 | 266.2004 | 130.6768 | 13.92998 | 8.243 |
| 2026 May 02 17:57 | 2026 Apr 30 14:48:29 | 71.1448 | 0.01446 | 19.0046 | 266.2004 | 130.6768 | 13.92998 | 8.243 |
| 2026 May 01 17:56 | 2026 Apr 30 14:48:29 | 71.1448 | 0.01446 | 19.0046 | 266.2004 | 130.6768 | 13.92998 | 8.243 |
| 2026 Apr 30 17:56 | 2026 Apr 30 14:48:29 | 71.1448 | 0.01446 | 19.0046 | 266.2004 | 130.6768 | 13.92998 | 8.243 |
| 2026 Apr 29 17:57 | 2026 Apr 24 12:18:21 | 71.1446 | 0.01446 | 19.8229 | 275.1817 | 130.6768 | 13.92998 | 8.243 |
| 2026 Apr 28 17:56 | 2026 Apr 24 12:18:21 | 71.1446 | 0.01446 | 19.8229 | 275.1817 | 130.6768 | 13.92998 | 8.243 |
| 2026 Apr 27 17:58 | 2026 Apr 24 12:18:21 | 71.1446 | 0.01446 | 19.8229 | 275.1817 | 130.6768 | 13.92998 | 8.243 |
| 2026 Apr 26 17:58 | 2026 Apr 24 12:18:21 | 71.1446 | 0.01446 | 19.8229 | 275.1817 | 130.6768 | 13.92998 | 8.243 |
| 2026 Apr 25 17:58 | 2026 Apr 24 12:18:21 | 71.1446 | 0.01446 | 19.8229 | 275.1817 | 130.6768 | 13.92998 | 8.243 |
| 2026 Apr 24 17:59 | 2026 Apr 24 12:18:21 | 71.1446 | 0.01446 | 19.8229 | 275.1817 | 130.6768 | 13.92998 | 8.243 |
| 2026 Apr 23 17:57 | 2026 Apr 19 07:00:01 | 71.1451 | 0.01446 | 20.5228 | 282.8583 | 130.6768 | 13.92998 | 8.243 |
| 2026 Apr 22 17:57 | 2026 Apr 19 07:00:01 | 71.1451 | 0.01446 | 20.5228 | 282.8583 | 130.6768 | 13.92998 | 8.243 |
| 2026 Apr 21 17:57 | 2026 Apr 19 07:00:01 | 71.1451 | 0.01446 | 20.5228 | 282.8583 | 130.6768 | 13.92998 | 8.243 |
| 2026 Apr 20 17:57 | 2026 Apr 19 07:00:01 | 71.1451 | 0.01446 | 20.5228 | 282.8583 | 130.6768 | 13.92998 | 8.243 |
| 2026 Apr 19 17:58 | 2026 Apr 19 07:00:01 | 71.1451 | 0.01446 | 20.5228 | 282.8583 | 130.6768 | 13.92998 | 8.243 |
| 2026 Apr 18 17:56 | 2026 Apr 13 00:57:55 | 71.1460 | 0.01446 | 21.3608 | 292.0574 | 130.6768 | 13.92998 | 8.243 |
| 2026 Apr 16 17:57 | 2026 Apr 13 00:57:55 | 71.1460 | 0.01446 | 21.3608 | 292.0574 | 130.6768 | 13.92998 | 8.243 |
| 2026 Apr 14 17:57 | 2026 Apr 13 00:57:55 | 71.1460 | 0.01446 | 21.3608 | 292.0574 | 130.6768 | 13.92998 | 8.243 |
| 2026 Apr 13 17:57 | 2026 Apr 13 00:57:55 | 71.1460 | 0.01446 | 21.3608 | 292.0574 | 130.6768 | 13.92998 | 8.243 |
| 2026 Apr 12 17:57 | 2026 Apr 08 09:02:25 | 71.1467 | 0.01445 | 21.9859 | 298.9207 | 130.6768 | 13.92998 | 8.243 |
| 2026 Apr 11 17:57 | 2026 Apr 08 09:02:25 | 71.1467 | 0.01445 | 21.9859 | 298.9207 | 130.6768 | 13.92998 | 8.243 |
| 2026 Apr 10 17:58 | 2026 Apr 08 09:02:25 | 71.1467 | 0.01445 | 21.9859 | 298.9207 | 130.6768 | 13.92998 | 8.243 |